Flight Track Log - Related Links

Times and Time Zones

All times are in EDT time to prevent confusion due to time zone crossing. See the FLG3408 flight status page for this flight to view local times or setup timezone preferences in your user account.

Time Position Orientation Groundspeed Altitude Reporting Facility
EDT Latitude Longitude Course Direction KTS MPH feet Rate Location/Type
Wed 01:39:06 PM 40.7603 -111.9950 90° East 186 214 5,000  Level Salt Lake Center
Wed 01:40:20 PM 40.7519 -112.0631 261° West 214 246 7,100 1,500 Climbing Salt Lake Center
Wed 01:41:00 PM 40.9431 -112.2316 349° North  Level FlightAware Approximate
Wed 01:41:10 PM 40.7939 -112.1156 317° Northwest 251 289 8,100  Level Salt Lake Center
Wed 01:42:00 PM 41.0091 -112.1604 81° East  Level FlightAware Approximate
Wed 01:42:12 PM 40.8517 -112.1894 316° Northwest 283 326 9,600  Level Salt Lake Center
Wed 01:43:00 PM 41.0167 -112.0117 90° East  Level FlightAware Approximate
Wed 01:43:14 PM 40.9300 -112.2361 336° Northwest 296 341 11,600  Level Salt Lake Center
Wed 01:44:00 PM 41.0168 -111.8622 90° East  Level FlightAware Approximate
Wed 01:44:15 PM 40.9769 -112.1625 50° Northeast 289 333 14,000  Level Salt Lake Center
Wed 01:45:17 PM 40.9881 -112.0425 83° East 305 351 15,500 1,210 Climbing Salt Lake Center
Wed 01:46:19 PM 41.0006 -111.9150 83° East 347 399 16,500 1,065 Climbing Salt Lake Center
Wed 01:47:21 PM 41.0278 -111.7792 75° East 379 436 17,700 1,355 Climbing Salt Lake Center
Wed 01:48:23 PM 41.0611 -111.6286 74° East 395 455 19,300 1,500 Climbing Salt Lake Center
Wed 01:49:25 PM 41.0917 -111.4867 74° East 400 460 20,800 1,452 Climbing Salt Lake Center
Wed 01:50:27 PM 41.1225 -111.3433 74° East 406 467 22,300 1,452 Climbing Salt Lake Center
Wed 01:51:29 PM 41.1522 -111.1989 75° East 402 463 23,800 1,452 Climbing Salt Lake Center
Wed 01:52:31 PM 41.1817 -111.0606 74° East 406 467 25,300 1,500 Climbing Salt Lake Center
Wed 01:53:33 PM 41.2142 -110.9017 75° East 403 464 26,900 1,500 Climbing Salt Lake Center
Wed 01:54:35 PM 41.2428 -110.7650 74° East 402 463 28,400 1,561 Climbing Salt Lake Center
Wed 01:55:36 PM 41.2747 -110.6092 75° East 395 455 30,100 1,512 Climbing Salt Lake Center
Wed 01:56:38 PM 41.3019 -110.4775 75° East 389 448 31,500 1,355 Climbing Salt Lake Center
Wed 01:57:40 PM 41.3269 -110.3281 77° East 376 433 32,900 1,161 Climbing Salt Lake Center
Wed 01:58:42 PM 41.3447 -110.1994 80° East 371 427 33,900 1,016 Climbing Salt Lake Center
Wed 01:59:44 PM 41.3661 -110.0492 79° East 370 426 35,000 823 Climbing Salt Lake Center
Wed 02:00:46 PM 41.3839 -109.9225 79° East 366 421 35,600 339 Climbing Salt Lake Center
Wed 02:01:48 PM 41.4044 -109.7711 80° East 371 427 35,700 48 Climbing Salt Lake Center
Wed 02:02:50 PM 41.4236 -109.6347 79° East 385 443 35,700 194 Level Salt Lake Center
Wed 02:03:52 PM 41.4461 -109.4686 80° East 402 463 36,100 339 Climbing Salt Lake Center
Wed 02:04:54 PM 41.4658 -109.3233 80° East 411 473 36,400 387 Climbing Salt Lake Center
Wed 02:05:56 PM 41.4858 -109.1739 80° East 417 480 36,900 290 Climbing Salt Lake Center
Wed 02:06:58 PM 41.5103 -108.9942 80° East 424 488 37,000 48 Climbing Salt Lake Center
Wed 02:08:00 PM 41.5292 -108.8419 81° East 430 495 37,000  Level Salt Lake Center
Wed 02:09:02 PM 41.5489 -108.6878 80° East 437 503 37,000  Level Salt Lake Center
Wed 02:10:04 PM 41.5714 -108.5069 80° East 441 507 37,000  Level Salt Lake Center
Wed 02:11:06 PM 41.5911 -108.3539 80° East 440 506 37,000  Level Salt Lake Center
Wed 02:12:08 PM 41.6133 -108.1728 81° East 441 507 37,000  Level Salt Lake Center
Wed 02:12:52 PM 41.6192 -108.0697 86° East 440 506 37,000  Level Denver Center
Wed 02:13:54 PM 41.6106 -107.8883 94° East 439 505 37,000  Level Denver Center
Wed 02:14:56 PM 41.6042 -107.7317 93° East 440 506 37,000  Level Denver Center
Wed 02:15:57 PM 41.5956 -107.5486 94° East 441 507 37,000  Level Denver Center
Wed 02:16:59 PM 41.5897 -107.3928 93° East 441 507 37,000  Level Denver Center
Wed 02:18:01 PM 41.5808 -107.2097 94° East 443 510 37,000  Level Denver Center
Wed 02:19:03 PM 41.5753 -107.0536 93° East 441 507 37,000  Level Denver Center
Wed 02:20:05 PM 41.5603 -106.8708 96° East 443 510 37,000  Level Denver Center
Wed 02:21:07 PM 41.5417 -106.7156 99° East 443 510 37,000  Level Denver Center
Wed 02:22:08 PM 41.5258 -106.5581 98° East 446 513 37,000  Level Denver Center
Wed 02:23:10 PM 41.5086 -106.3778 97° East 443 510 37,000  Level Denver Center
Wed 02:24:12 PM 41.4931 -106.2222 98° East 443 510 37,000  Level Denver Center
Wed 02:25:14 PM 41.4739 -106.0372 98° East 448 516 37,000  Level Denver Center
Wed 02:26:16 PM 41.4833 -105.8828 85° East 447 514 37,000  Level Denver Center
Wed 02:27:17 PM 41.5231 -105.7006 74° East 458 527 37,000  Level Denver Center
Wed 02:28:19 PM 41.5606 -105.5458 72° East 459 528 37,000  Level Denver Center
Wed 02:29:21 PM 41.5936 -105.3639 76° East 454 522 37,000  Level Denver Center
Wed 02:30:23 PM 41.6111 -105.2025 82° East 456 525 37,000  Level Denver Center
Wed 02:31:25 PM 41.6333 -105.0181 81° East 453 521 37,000  Level Denver Center
Wed 02:32:26 PM 41.6519 -104.8625 81° East 448 516 37,000  Level Denver Center
Wed 02:33:40 PM 41.6725 -104.6783 81° East 449 517 37,000  Level Denver Center
Wed 02:34:42 PM 41.6939 -104.4956 81° East 449 517 37,000  Level Denver Center
Wed 02:35:44 PM 41.7142 -104.3128 81° East 447 514 37,000  Level Denver Center
Wed 02:36:46 PM 41.7314 -104.1547 82° East 448 516 37,000  Level Denver Center
Wed 02:37:48 PM 41.7517 -103.9717 81° East 449 517 37,000  Level Denver Center
Wed 02:38:49 PM 41.7689 -103.8156 82° East 445 512 37,000  Level Denver Center
Wed 02:39:51 PM 41.7878 -103.6331 82° East 443 510 37,000  Level Denver Center
Wed 02:40:53 PM 41.8031 -103.4750 83° East 446 513 37,000  Level Denver Center
Wed 02:41:55 PM 41.8228 -103.2908 82° East 449 517 37,000  Level Denver Center
Wed 02:42:56 PM 41.8394 -103.1311 82° East 451 519 37,000  Level Denver Center
Wed 02:43:58 PM 41.8561 -102.9725 82° East 451 519 37,000  Level Denver Center
Wed 02:45:00 PM 41.8750 -102.7892 82° East 448 516 37,000  Level Denver Center
Wed 02:46:02 PM 41.8881 -102.6342 83° East 440 506 37,000  Level Denver Center
Wed 02:47:03 PM 41.9058 -102.4531 82° East 440 506 37,000  Level Denver Center
Wed 02:48:05 PM 41.9211 -102.2978 82° East 440 506 37,000  Level Denver Center
Wed 02:49:07 PM 41.9358 -102.1297 83° East 437 503 37,000  Level Denver Center
Wed 02:50:09 PM 41.9519 -101.9469 83° East 441 507 37,000  Level Denver Center
Wed 02:51:10 PM 41.9667 -101.7903 83° East 441 507 37,000  Level Denver Center
Wed 02:52:12 PM 41.9800 -101.6322 83° East 442 509 37,000  Level Denver Center
Wed 02:53:14 PM 41.9958 -101.4489 83° East 441 507 37,000  Level Denver Center
Wed 02:54:16 PM 42.0094 -101.2903 83° East 443 510 37,000  Level Denver Center
Wed 02:55:17 PM 42.0239 -101.1058 84° East 443 510 37,000  Level Denver Center
Wed 02:56:19 PM 42.0378 -100.9458 83° East 448 516 37,000  Level Denver Center
Wed 02:57:21 PM 42.0511 -100.7594 84° East 447 514 37,000  Level Denver Center
Wed 02:58:22 PM 42.0644 -100.5981 84° East 451 519 37,000  Level Denver Center
Wed 02:59:24 PM 42.0767 -100.4356 84° East 454 522 37,000  Level Denver Center
Wed 03:00:19 PM 42.0897 -100.2628 84° East 446 513 37,000  Level Minneapolis Center
Wed 03:01:21 PM 42.1081 -100.1097 81° East 451 519 37,000  Level Minneapolis Center
Wed 03:02:23 PM 42.1272 -99.9394 81° East 458 527 37,000  Level Minneapolis Center
Wed 03:03:31 PM 42.1497 -99.7292 82° East 463 533 37,000  Level Denver Center
Wed 03:04:33 PM 42.1697 -99.5508 81° East 463 533 37,000  Level Denver Center
Wed 03:05:35 PM 42.1886 -99.3747 82° East 470 541 37,000  Level Denver Center
Wed 03:06:31 PM 42.2064 -99.2092 82° East 473 544 37,000  Level Minneapolis Center
Wed 03:07:32 PM 42.2250 -99.0306 82° East 478 550 37,000  Level Minneapolis Center
Wed 03:08:34 PM 42.2431 -98.8511 82° East 481 554 37,000  Level Minneapolis Center
Wed 03:09:36 PM 42.2614 -98.6692 82° East 487 560 37,000  Level Minneapolis Center
Wed 03:10:38 PM 42.2792 -98.4886 82° East 486 559 37,000  Level Minneapolis Center
Wed 03:11:39 PM 42.3008 -98.2708 82° East 488 562 37,000  Level Minneapolis Center
Wed 03:12:41 PM 42.3178 -98.0881 83° East 489 563 37,000  Level Minneapolis Center
Wed 03:13:43 PM 42.3347 -97.9053 83° East 490 564 37,000  Level Minneapolis Center
Wed 03:14:45 PM 42.3528 -97.7217 82° East 492 566 37,000  Level Minneapolis Center
Wed 03:15:46 PM 42.3683 -97.5375 83° East 492 566 37,000  Level Minneapolis Center
Wed 03:16:48 PM 42.3844 -97.3536 83° East 493 567 37,000  Level Minneapolis Center
Wed 03:17:50 PM 42.4011 -97.1664 83° East 497 572 37,000  Level Minneapolis Center
Wed 03:18:52 PM 42.4167 -96.9808 83° East 497 572 37,000  Level Minneapolis Center
Wed 03:19:53 PM 42.4314 -96.7953 84° East 496 571 37,000  Level Minneapolis Center
Wed 03:20:55 PM 42.4500 -96.5736 83° East 493 567 37,000  Level Minneapolis Center
Wed 03:21:57 PM 42.4644 -96.3886 84° East 493 567 37,000  Level Minneapolis Center
Wed 03:22:58 PM 42.4800 -96.2039 83° East 493 567 37,000  Level Minneapolis Center
Wed 03:24:00 PM 42.4942 -96.0139 84° East 502 578 37,000  Level Minneapolis Center
Wed 03:25:02 PM 42.5078 -95.8275 84° East 498 573 37,000  Level Minneapolis Center
Wed 03:26:03 PM 42.5217 -95.6392 84° East 501 577 37,000  Level Minneapolis Center
Wed 03:27:05 PM 42.5350 -95.4514 84° East 499 574 37,000  Level Minneapolis Center
Wed 03:28:07 PM 42.5478 -95.2619 85° East 503 579 37,000  Level Minneapolis Center
Wed 03:29:09 PM 42.5631 -95.0381 85° East 498 573 37,000  Level Minneapolis Center
Wed 03:30:10 PM 42.5758 -94.8511 85° East 498 573 37,000  Level Minneapolis Center
Wed 03:31:12 PM 42.5872 -94.6658 85° East 494 568 37,000  Level Minneapolis Center
Wed 03:32:14 PM 42.5969 -94.4947 86° East 492 566 37,000  Level Minneapolis Center
Wed 03:33:16 PM 42.6078 -94.3150 85° East 486 559 37,000  Level Minneapolis Center
Wed 03:34:18 PM 42.6017 -94.1006 92° East 480 552 37,000  Level Minneapolis Center
Wed 03:35:19 PM 42.5933 -93.9217 94° East 480 552 37,000  Level Minneapolis Center
Wed 03:36:21 PM 42.5844 -93.7428 94° East 480 552 37,000  Level Minneapolis Center
Wed 03:37:23 PM 42.5767 -93.5639 93° East 479 551 37,000  Level Minneapolis Center
Wed 03:38:25 PM 42.5675 -93.3847 94° East 482 555 37,000  Level Minneapolis Center
Wed 03:39:27 PM 42.5572 -93.1706 94° East 479 551 37,000  Level Minneapolis Center
Wed 03:40:28 PM 42.5475 -92.9944 94° East 475 547 37,000  Level Minneapolis Center
Wed 03:41:30 PM 42.5372 -92.8178 94° East 475 547 37,000  Level Minneapolis Center
Wed 03:42:44 PM 42.5278 -92.6433 94° East 472 543 37,000  Level Minneapolis Center
Wed 03:43:46 PM 42.5158 -92.4319 94° East 474 545 37,000  Level Minneapolis Center
Wed 03:44:48 PM 42.5028 -92.2247 95° East 470 541 37,000 -387 Level Minneapolis Center
Wed 03:45:50 PM 42.4931 -92.0514 94° East 469 540 36,200 -919 Descending Minneapolis Center
Wed 03:46:52 PM 42.4817 -91.8803 95° East 467 537 35,100 -1,113 Descending Minneapolis Center
Wed 03:47:54 PM 42.4703 -91.7092 95° East 466 536 33,900 -1,258 Descending Minneapolis Center
Wed 03:48:56 PM 42.4564 -91.5011 95° East 472 543 32,500 -1,258 Descending Minneapolis Center
Wed 03:49:58 PM 42.4444 -91.3239 95° East 478 550 31,300 -677 Descending Minneapolis Center
Wed 03:51:00 PM 42.4350 -91.1433 94° East 486 559 31,100 -629 Descending Minneapolis Center
Wed 03:52:02 PM 42.4511 -90.9308 84° East 494 568 30,000 -1,355 Descending Minneapolis Center
Wed 03:53:04 PM 42.4625 -90.7447 85° East 489 563 28,300 -1,258 Descending Minneapolis Center
Wed 03:54:06 PM 42.4719 -90.5869 85° East 482 555 27,400 -1,478 Descending Minneapolis Center
Wed 03:55:22 PM 42.4867 -90.3631 85° East 467 537 24,900 -1,478 Descending Chicago Center
Wed 03:56:24 PM 42.4978 -90.1903 85° East 467 537 24,000 -960 Descending Chicago Center
Wed 03:57:27 PM 42.5103 -89.9831 85° East 464 534 22,900 -1,296 Descending Chicago Center
Wed 03:58:29 PM 42.5189 -89.8208 86° East 453 521 21,300 -1,488 Descending Chicago Center
Wed 03:59:32 PM 42.5292 -89.6589 85° East 435 501 19,800 -1,645 Descending Chicago Center
Wed 04:00:33 PM 42.5378 -89.4703 86° East 430 495 17,900 -1,659 Descending Chicago Center
Wed 04:01:35 PM 42.5467 -89.3161 85° East 419 482 16,400 -1,500 Descending Chicago Center
Wed 04:02:37 PM 42.5550 -89.1628 86° East 411 473 14,800 -1,452 Descending Chicago Center
Wed 04:03:39 PM 42.5317 -89.0206 103° East 400 460 13,400 -1,548 Descending Chicago Center
Wed 04:04:41 PM 42.4911 -88.8842 112° Southeast 397 457 11,600 -1,790 Descending Chicago Center
Wed 04:05:43 PM 42.4478 -88.7389 112° Southeast 368 423 9,700 -1,258 Descending Chicago Center
Wed 04:06:45 PM 42.4192 -88.6431 112° Southeast 295 339 9,000 -339 Descending Chicago Center
Wed 04:07:47 PM 42.3886 -88.5453 113° Southeast 283 326 9,000 -242 Level Chicago Center
Wed 04:08:49 PM 42.3464 -88.4511 121° Southeast 293 337 8,500 -960 Descending Chicago Center
Wed 04:09:52 PM 42.3047 -88.3617 122° Southeast 279 321 7,000 -720 Descending Chicago Center
Wed 04:10:54 PM 42.2622 -88.2758 124° Southeast 278 320 7,000 -97 Level Chicago Center
Wed 04:11:56 PM 42.2222 -88.1908 134° Southeast 273 314 6,800 -726 Descending Chicago Center
Wed 04:12:00 PM 42.1527 -88.1704 134° Southeast  Level FlightAware Approximate
Wed 04:12:58 PM 42.1569 -88.1219 142° Southeast 254 292 5,500  Level Chicago Center
Wed 04:13:55 PM 42.1000 -88.0667 144° Southeast 247 284 4,000 -1,487 Descending Chicago TRACON
Wed 04:14:55 PM 42.0667 -88.0167 132° Southeast 210 242 2,600 -1,400 Descending Chicago TRACON

Login

Don't have an account? Register now (free) for customized features, flight alerts, and more!